createdAt,value
2023-02-14T00:01:12.797Z,16.05
2023-02-14T00:03:40.600Z,19.02
2023-02-14T00:06:09.630Z,19.88
2023-02-14T00:08:37.090Z,19.73
2023-02-14T00:11:05.646Z,21.00
2023-02-14T00:13:33.172Z,15.63
2023-02-14T00:16:00.302Z,18.67
2023-02-14T00:18:47.487Z,20.52
2023-02-14T00:21:14.736Z,19.65
2023-02-14T00:23:41.897Z,17.02
2023-02-14T00:26:16.816Z,20.00
2023-02-14T00:28:43.913Z,16.77
2023-02-14T00:31:11.198Z,15.63
2023-02-14T00:33:38.784Z,18.27
2023-02-14T00:36:07.581Z,19.52
2023-02-14T00:38:34.966Z,18.90
2023-02-14T00:41:02.981Z,19.38
2023-02-14T00:43:29.962Z,16.27
2023-02-14T00:45:57.746Z,17.95
2023-02-14T00:48:25.180Z,18.38
2023-02-14T00:50:52.465Z,17.63
2023-02-14T00:53:19.544Z,15.73
2023-02-14T00:55:47.258Z,19.15
2023-02-14T00:58:15.265Z,17.17
2023-02-14T01:00:42.484Z,16.25
2023-02-14T01:03:09.498Z,16.42
2023-02-14T01:05:36.545Z,15.40
2023-02-14T01:08:04.668Z,19.90
2023-02-14T01:10:32.006Z,16.60
2023-02-14T01:12:59.383Z,17.88
2023-02-14T01:15:28.240Z,16.30
2023-02-14T01:17:55.437Z,14.88
2023-02-14T01:20:22.493Z,17.92
2023-02-14T01:22:49.863Z,13.68
2023-02-14T01:25:17.439Z,15.18
2023-02-14T01:27:44.900Z,14.55
2023-02-14T01:30:14.622Z,15.70
2023-02-14T01:32:42.505Z,13.88
2023-02-14T01:35:09.922Z,18.08
2023-02-14T01:37:37.072Z,13.95
2023-02-14T01:40:08.612Z,16.75
2023-02-14T01:42:36.937Z,18.83
2023-02-14T01:45:09.512Z,12.90
2023-02-14T01:47:41.479Z,17.02
2023-02-14T01:50:36.493Z,14.13
2023-02-14T01:53:13.876Z,14.45
2023-02-14T01:55:46.781Z,13.20
2023-02-14T01:58:20.484Z,14.60
2023-02-14T02:00:58.637Z,15.88
2023-02-14T02:03:52.300Z,12.13
2023-02-14T02:06:25.604Z,13.43
2023-02-14T02:09:16.573Z,15.48
2023-02-14T02:11:44.218Z,16.00
2023-02-14T02:14:17.635Z,16.15
2023-02-14T02:19:33.388Z,13.35
2023-02-14T02:22:06.119Z,11.85
2023-02-14T02:25:16.690Z,12.30
2023-02-14T02:27:55.814Z,12.75
2023-02-14T02:30:28.615Z,11.85
2023-02-14T02:33:17.538Z,15.73
2023-02-14T02:36:10.736Z,15.02
2023-02-14T02:39:04.161Z,13.73
2023-02-14T02:41:54.697Z,13.05
2023-02-14T02:44:54.614Z,16.77
2023-02-14T02:47:33.822Z,14.13
2023-02-14T02:50:42.996Z,13.63
2023-02-14T02:53:22.523Z,15.90
2023-02-14T02:56:22.566Z,14.73
2023-02-14T02:58:58.607Z,14.90
2023-02-14T03:01:34.572Z,12.95
2023-02-14T03:04:25.489Z,15.98
2023-02-14T03:06:53.224Z,14.13
2023-02-14T03:09:20.221Z,13.70
2023-02-14T03:12:12.906Z,16.23
2023-02-14T03:15:01.138Z,14.48
2023-02-14T03:17:46.851Z,13.68
2023-02-14T03:20:26.932Z,14.48
2023-02-14T03:23:05.568Z,13.88
2023-02-14T03:26:02.116Z,12.45
2023-02-14T03:28:43.266Z,13.63
2023-02-14T03:31:24.179Z,15.05
2023-02-14T03:33:59.967Z,13.75
2023-02-14T03:36:50.843Z,17.15
2023-02-14T03:39:35.119Z,12.45
2023-02-14T03:42:27.549Z,15.15
2023-02-14T03:44:56.873Z,13.48
2023-02-14T03:47:28.656Z,12.10
2023-02-14T03:50:18.940Z,12.32
2023-02-14T03:52:48.487Z,13.32
2023-02-14T03:55:20.121Z,11.85
2023-02-14T03:57:56.344Z,11.10
2023-02-14T04:00:23.534Z,11.85
2023-02-14T04:02:56.222Z,13.70
2023-02-14T04:05:26.623Z,12.60
2023-02-14T04:07:56.333Z,13.52
2023-02-14T04:10:24.643Z,17.63
2023-02-14T04:12:52.269Z,11.98
2023-02-14T04:15:19.392Z,11.65
2023-02-14T04:18:04.641Z,10.02
2023-02-14T04:20:31.801Z,14.13
2023-02-14T04:22:58.827Z,14.13
2023-02-14T04:25:26.277Z,15.93
2023-02-14T04:27:53.295Z,11.95
2023-02-14T04:30:22.931Z,16.65
2023-02-14T04:32:50.167Z,11.07
2023-02-14T04:35:17.299Z,9.55
2023-02-14T04:37:45.815Z,14.13
2023-02-14T04:40:16.896Z,11.82
2023-02-14T04:42:45.622Z,12.43
2023-02-14T04:45:13.450Z,12.18
2023-02-14T04:47:40.472Z,11.57
2023-02-14T04:50:08.124Z,12.88
2023-02-14T04:52:35.132Z,11.18
2023-02-14T04:55:02.316Z,12.68
2023-02-14T04:57:29.478Z,15.43
2023-02-14T04:59:56.555Z,15.18
2023-02-14T05:02:23.725Z,14.75
2023-02-14T05:04:50.750Z,13.02
2023-02-14T05:07:17.974Z,13.07
2023-02-14T05:09:44.981Z,13.93
2023-02-14T05:12:11.959Z,14.88
2023-02-14T05:14:39.084Z,11.65
2023-02-14T05:17:06.030Z,13.60
2023-02-14T05:19:33.050Z,13.27
2023-02-14T05:22:00.112Z,14.38
2023-02-14T05:24:27.290Z,14.40
2023-02-14T05:26:54.582Z,13.13
2023-02-14T05:29:21.619Z,15.05
2023-02-14T05:31:48.830Z,11.52
2023-02-14T05:34:15.816Z,14.88
2023-02-14T05:36:42.980Z,14.60
2023-02-14T05:39:09.943Z,13.30
2023-02-14T05:44:03.968Z,14.75
2023-02-14T05:46:31.200Z,13.65
2023-02-14T05:48:58.660Z,12.18
2023-02-14T05:51:26.098Z,13.18
2023-02-14T05:53:53.301Z,12.75
2023-02-14T05:56:20.281Z,14.52
2023-02-14T05:58:47.389Z,13.93
2023-02-14T06:01:14.513Z,16.88
2023-02-14T06:03:41.470Z,14.95
2023-02-14T06:06:08.581Z,15.55
2023-02-14T06:08:35.661Z,14.57
2023-02-14T06:11:02.996Z,15.95
2023-02-14T06:13:30.235Z,16.75
2023-02-14T06:15:57.491Z,18.10
2023-02-14T06:18:28.237Z,17.30
2023-02-14T06:20:55.913Z,17.65
2023-02-14T06:23:22.920Z,17.08
2023-02-14T06:25:50.146Z,15.45
2023-02-14T06:28:17.199Z,15.88
2023-02-14T06:30:46.244Z,14.32
2023-02-14T06:33:13.357Z,15.57
2023-02-14T06:35:40.486Z,14.38
2023-02-14T06:38:07.455Z,17.23
2023-02-14T06:40:34.655Z,15.60
2023-02-14T06:43:01.637Z,17.13
2023-02-14T06:45:28.687Z,16.40
2023-02-14T06:47:55.819Z,14.65
2023-02-14T06:50:22.966Z,11.10
2023-02-14T06:52:51.635Z,17.20
2023-02-14T06:55:19.329Z,14.65
2023-02-14T06:57:46.583Z,16.00
2023-02-14T07:00:15.029Z,11.10
2023-02-14T07:02:42.306Z,11.07
2023-02-14T07:05:10.127Z,10.45
2023-02-14T07:07:37.122Z,10.38
2023-02-14T07:10:04.675Z,10.57
2023-02-14T07:12:31.658Z,12.32
2023-02-14T07:14:58.818Z,12.45
2023-02-14T07:17:25.903Z,11.88
2023-02-14T07:19:52.955Z,15.77
2023-02-14T07:22:19.987Z,15.70
2023-02-14T07:24:47.649Z,16.58
2023-02-14T07:27:14.686Z,12.73
2023-02-14T07:29:41.682Z,12.45
2023-02-14T07:32:08.926Z,9.70
2023-02-14T07:34:36.054Z,11.27
2023-02-14T07:37:03.033Z,10.13
2023-02-14T07:39:30.161Z,9.25
2023-02-14T07:41:57.167Z,11.60
2023-02-14T07:44:26.939Z,10.00
2023-02-14T07:46:54.001Z,10.63
2023-02-14T07:49:21.257Z,12.88
2023-02-14T07:51:48.337Z,9.52
2023-02-14T07:54:15.534Z,12.77
2023-02-14T07:56:42.614Z,8.30
2023-02-14T07:59:09.646Z,10.85
2023-02-14T08:01:36.795Z,8.10
2023-02-14T08:04:04.114Z,10.32
2023-02-14T08:06:31.314Z,8.68
2023-02-14T08:08:58.399Z,8.68
2023-02-14T08:11:43.968Z,9.80
2023-02-14T08:14:11.160Z,8.77
2023-02-14T08:16:39.207Z,11.68
2023-02-14T08:19:06.376Z,12.63
2023-02-14T08:21:33.462Z,11.45
2023-02-14T08:24:01.004Z,11.52
2023-02-14T08:26:28.041Z,11.48
2023-02-14T08:28:55.228Z,11.05
2023-02-14T08:31:35.193Z,10.00
2023-02-14T08:34:07.132Z,9.57
2023-02-14T08:36:35.212Z,10.50
2023-02-14T08:39:04.943Z,12.23
2023-02-14T08:41:32.550Z,12.82
2023-02-14T08:43:59.711Z,16.83
2023-02-14T08:46:26.968Z,9.45
2023-02-14T08:48:55.000Z,11.80
2023-02-14T08:51:37.898Z,10.50
2023-02-14T08:54:05.168Z,8.20
2023-02-14T08:56:33.217Z,10.52
2023-02-14T08:59:00.340Z,11.68
2023-02-14T09:01:29.238Z,9.40
2023-02-14T09:03:57.088Z,9.20
2023-02-14T09:06:24.169Z,8.27
2023-02-14T09:08:51.973Z,9.15
2023-02-14T09:11:22.447Z,7.47
2023-02-14T09:13:51.590Z,9.88
2023-02-14T09:16:20.645Z,9.85
2023-02-14T09:18:49.004Z,9.82
2023-02-14T09:21:18.500Z,10.00
2023-02-14T09:23:45.875Z,10.27
2023-02-14T09:26:15.623Z,11.48
2023-02-14T09:28:43.392Z,10.20
2023-02-14T09:31:22.879Z,11.10
2023-02-14T09:34:09.352Z,11.18
2023-02-14T09:36:55.185Z,10.02
2023-02-14T09:39:22.422Z,11.73
2023-02-14T09:42:04.101Z,11.02
2023-02-14T09:44:42.616Z,13.85
2023-02-14T09:47:27.895Z,10.45
2023-02-14T09:49:55.968Z,12.55
2023-02-14T09:52:28.030Z,10.00
2023-02-14T09:54:58.054Z,13.60
2023-02-14T09:58:03.739Z,9.95
2023-02-14T10:00:30.748Z,7.45
2023-02-14T10:03:02.099Z,10.95
2023-02-14T10:05:53.761Z,12.55
2023-02-14T10:08:48.520Z,10.80
2023-02-14T10:11:20.625Z,13.25
2023-02-14T10:14:20.688Z,9.20
2023-02-14T10:16:56.623Z,12.05
2023-02-14T10:19:32.247Z,14.05
2023-02-14T10:22:04.136Z,12.80
2023-02-14T10:24:40.476Z,8.38
2023-02-14T10:27:15.989Z,9.68
2023-02-14T10:29:43.078Z,9.18
2023-02-14T10:32:22.413Z,9.43
2023-02-14T10:34:57.313Z,8.73
2023-02-14T10:37:24.349Z,7.95
2023-02-14T10:40:25.198Z,9.93
2023-02-14T10:43:33.258Z,11.60
2023-02-14T10:46:03.725Z,9.32
2023-02-14T10:49:08.486Z,9.70
2023-02-14T10:51:53.703Z,13.57
2023-02-14T10:54:38.301Z,12.30
2023-02-14T10:57:29.675Z,20.48
2023-02-14T11:00:40.088Z,12.05
2023-02-14T11:03:09.602Z,12.85
2023-02-14T11:05:48.491Z,17.60
2023-02-14T11:08:27.078Z,14.35
2023-02-14T11:11:11.101Z,10.13
2023-02-14T11:13:39.755Z,16.92
2023-02-14T11:16:10.354Z,13.10
2023-02-14T11:18:40.115Z,13.13
2023-02-14T11:21:11.517Z,11.75
2023-02-14T11:23:47.153Z,11.32
2023-02-14T11:26:35.190Z,11.65
2023-02-14T11:29:12.407Z,9.85
2023-02-14T11:31:41.027Z,12.18
2023-02-14T11:34:36.731Z,12.00
2023-02-14T11:37:16.060Z,11.85
2023-02-14T11:39:44.420Z,12.30
2023-02-14T11:42:13.285Z,11.43
2023-02-14T11:44:55.674Z,10.23
2023-02-14T11:47:31.808Z,10.30
2023-02-14T11:50:02.736Z,10.25
2023-02-14T11:52:30.961Z,14.10
2023-02-14T11:54:59.337Z,14.32
2023-02-14T11:57:33.533Z,17.83
2023-02-14T12:00:04.925Z,12.38
2023-02-14T12:02:44.909Z,10.13
2023-02-14T12:05:31.679Z,12.70
2023-02-14T12:08:08.263Z,8.60
2023-02-14T12:10:39.028Z,8.20
2023-02-14T12:13:09.227Z,10.65
2023-02-14T12:15:49.737Z,9.65
2023-02-14T12:18:25.035Z,15.30
2023-02-14T12:21:14.189Z,9.98
2023-02-14T12:23:59.772Z,11.10
2023-02-14T12:26:35.785Z,10.50
2023-02-14T12:29:28.042Z,13.45
2023-02-14T12:31:59.890Z,14.68
2023-02-14T12:34:28.357Z,12.13
2023-02-14T12:37:07.947Z,8.73
2023-02-14T12:40:05.556Z,13.15
2023-02-14T12:43:04.334Z,8.75
2023-02-14T12:45:56.798Z,8.00
2023-02-14T12:48:55.360Z,7.35
2023-02-14T12:51:25.278Z,11.00
2023-02-14T12:54:16.805Z,10.27
2023-02-14T12:56:59.489Z,9.70
2023-02-14T12:59:58.814Z,11.52
2023-02-14T13:02:28.715Z,7.72
2023-02-14T13:05:05.961Z,8.20
2023-02-14T13:08:11.326Z,7.20
2023-02-14T13:11:02.215Z,8.23
2023-02-14T13:14:06.130Z,11.65
2023-02-14T13:16:56.285Z,8.93
2023-02-14T13:19:41.827Z,7.13
2023-02-14T13:22:15.346Z,12.02
2023-02-14T13:24:46.379Z,8.32
2023-02-14T13:27:22.181Z,11.07
2023-02-14T13:29:56.561Z,10.77
2023-02-14T13:32:31.643Z,9.50
2023-02-14T13:34:59.640Z,9.98
2023-02-14T13:37:28.356Z,9.77
2023-02-14T13:40:09.008Z,6.43
2023-02-14T13:42:48.084Z,7.45
2023-02-14T13:45:30.528Z,8.13
2023-02-14T13:48:10.447Z,7.95
2023-02-14T13:51:00.084Z,8.02
2023-02-14T13:53:39.758Z,11.00
2023-02-14T13:56:31.523Z,6.22
2023-02-14T13:59:28.066Z,10.68
2023-02-14T14:01:56.380Z,13.20
2023-02-14T14:04:26.394Z,7.72
2023-02-14T14:07:05.557Z,11.77
2023-02-14T14:09:41.478Z,5.82
2023-02-14T14:12:29.020Z,9.45
2023-02-14T14:15:05.232Z,7.75
2023-02-14T14:17:33.276Z,9.43
2023-02-14T14:20:01.560Z,11.07
2023-02-14T14:22:28.974Z,8.70
2023-02-14T14:24:59.519Z,10.43
2023-02-14T14:27:30.912Z,9.55
2023-02-14T14:30:01.241Z,9.10
2023-02-14T14:32:36.621Z,8.55
2023-02-14T14:35:05.867Z,9.23
2023-02-14T14:37:36.046Z,10.30
2023-02-14T14:40:11.112Z,6.90
2023-02-14T14:42:40.582Z,6.60
2023-02-14T14:45:19.830Z,7.97
2023-02-14T14:47:48.344Z,6.82
2023-02-14T14:50:24.490Z,9.32
2023-02-14T14:52:54.538Z,8.75
2023-02-14T14:55:27.973Z,6.88
2023-02-14T14:58:08.404Z,6.35
2023-02-14T15:00:42.751Z,8.02
2023-02-14T15:03:12.587Z,9.93
2023-02-14T15:05:42.361Z,9.25
2023-02-14T15:08:33.523Z,7.43
2023-02-14T15:11:11.578Z,11.60
2023-02-14T15:13:49.960Z,7.93
2023-02-14T15:16:48.771Z,9.57
2023-02-14T15:19:33.587Z,10.88
2023-02-14T15:22:06.227Z,9.45
2023-02-14T15:24:35.311Z,9.32
2023-02-14T15:27:03.374Z,12.68
2023-02-14T15:29:32.771Z,10.80
2023-02-14T15:32:03.355Z,13.50
2023-02-14T15:34:36.221Z,12.63
2023-02-14T15:37:06.872Z,11.13
2023-02-14T15:39:41.691Z,9.60
2023-02-14T15:42:32.971Z,10.27
2023-02-14T15:45:24.661Z,8.88
2023-02-14T15:47:57.750Z,13.23
2023-02-14T15:50:30.481Z,9.45
2023-02-14T15:53:05.885Z,9.40
2023-02-14T15:55:34.449Z,12.98
2023-02-14T15:58:11.863Z,9.95
2023-02-14T16:00:39.040Z,9.45
2023-02-14T16:03:09.080Z,11.88
2023-02-14T16:05:36.367Z,10.10
2023-02-14T16:08:23.038Z,12.10
2023-02-14T16:11:01.214Z,11.70
2023-02-14T16:13:37.011Z,12.02
2023-02-14T16:16:09.812Z,9.45
2023-02-14T16:18:43.994Z,10.45
2023-02-14T16:21:30.661Z,13.88
2023-02-14T16:24:06.990Z,12.07
2023-02-14T16:26:36.068Z,11.38
2023-02-14T16:29:07.308Z,11.60
2023-02-14T16:31:56.575Z,14.95
2023-02-14T16:34:30.456Z,10.63
2023-02-14T16:36:57.573Z,14.15
2023-02-14T16:39:26.433Z,17.48
2023-02-14T16:41:56.453Z,10.27
2023-02-14T16:44:23.680Z,11.02
2023-02-14T16:46:50.896Z,8.75
2023-02-14T16:49:17.899Z,11.85
2023-02-14T16:51:47.877Z,11.77
2023-02-14T16:54:19.873Z,10.00
2023-02-14T16:56:48.786Z,11.80
2023-02-14T16:59:15.785Z,10.98
2023-02-14T17:01:43.013Z,9.15
2023-02-14T17:04:10.463Z,11.15
2023-02-14T17:06:42.001Z,12.68
2023-02-14T17:09:12.349Z,14.00
2023-02-14T17:11:45.120Z,14.43
2023-02-14T17:14:18.247Z,15.35
2023-02-14T17:16:45.499Z,10.35
2023-02-14T17:19:13.042Z,12.40
2023-02-14T17:21:40.628Z,13.27
2023-02-14T17:24:07.610Z,14.95
2023-02-14T17:26:35.307Z,15.43
2023-02-14T17:29:02.284Z,14.98
2023-02-14T17:31:29.616Z,15.70
2023-02-14T17:33:56.842Z,14.55
2023-02-14T17:36:24.261Z,21.02
2023-02-14T17:38:53.923Z,16.33
2023-02-14T17:41:24.147Z,12.10
2023-02-14T17:43:54.669Z,16.70
2023-02-14T17:46:22.453Z,13.38
2023-02-14T17:48:49.755Z,14.30
2023-02-14T17:51:20.453Z,15.32
2023-02-14T17:53:48.672Z,14.15
2023-02-14T17:56:22.119Z,16.40
2023-02-14T18:01:20.667Z,16.75
2023-02-14T18:03:48.355Z,19.17
2023-02-14T18:06:16.123Z,21.17
2023-02-14T18:09:04.730Z,16.65
2023-02-14T18:11:31.966Z,36.85
2023-02-14T18:13:59.825Z,31.25
2023-02-14T18:16:27.001Z,20.88
2023-02-14T18:18:55.053Z,18.15
2023-02-14T18:21:23.298Z,17.23
2023-02-14T18:23:50.459Z,13.88
2023-02-14T18:26:18.777Z,14.48
2023-02-14T18:28:46.712Z,13.27
2023-02-14T18:31:17.113Z,15.02
2023-02-14T18:33:45.504Z,14.85
2023-02-14T18:36:15.775Z,15.13
2023-02-14T18:38:44.736Z,13.73
2023-02-14T18:41:14.565Z,13.07
2023-02-14T18:43:41.961Z,11.65
2023-02-14T18:46:12.487Z,16.40
2023-02-14T18:48:40.584Z,12.07
2023-02-14T18:51:09.593Z,12.27
2023-02-14T18:53:37.483Z,14.73
2023-02-14T18:56:10.016Z,15.18
2023-02-14T18:58:37.501Z,14.35
2023-02-14T19:01:09.573Z,14.15
2023-02-14T19:03:37.202Z,16.90
2023-02-14T19:06:04.780Z,13.88
2023-02-14T19:08:37.175Z,12.05
2023-02-14T19:11:05.349Z,18.92
2023-02-14T19:13:33.745Z,15.63
2023-02-14T19:16:01.472Z,13.95
2023-02-14T19:18:28.566Z,14.07
2023-02-14T19:20:55.755Z,11.75
2023-02-14T19:23:22.720Z,12.38
2023-02-14T19:25:49.940Z,10.85
2023-02-14T19:28:17.154Z,12.93
2023-02-14T19:30:44.642Z,12.93
2023-02-14T19:33:11.950Z,10.90
2023-02-14T19:35:39.242Z,11.85
2023-02-14T19:38:06.367Z,13.98
2023-02-14T19:40:33.340Z,13.98
2023-02-14T19:43:00.456Z,10.43
2023-02-14T19:45:32.626Z,11.90
2023-02-14T19:48:01.840Z,14.00
2023-02-14T19:50:29.772Z,13.60
2023-02-14T19:52:58.421Z,12.85
2023-02-14T19:55:25.915Z,15.90
2023-02-14T19:57:53.386Z,13.80
2023-02-14T20:00:21.113Z,11.23
2023-02-14T20:02:48.392Z,11.80
2023-02-14T20:05:17.634Z,12.55
2023-02-14T20:07:45.199Z,14.70
2023-02-14T20:10:12.816Z,13.52
2023-02-14T20:12:39.914Z,13.63
2023-02-14T20:15:10.543Z,13.05
2023-02-14T20:17:38.061Z,11.07
2023-02-14T20:20:13.380Z,10.15
2023-02-14T20:22:43.111Z,10.18
2023-02-14T20:25:10.419Z,9.27
2023-02-14T20:27:37.653Z,12.65
2023-02-14T20:30:06.638Z,15.15
2023-02-14T20:32:33.947Z,10.98
2023-02-14T20:35:01.076Z,11.50
2023-02-14T20:37:28.377Z,18.13
2023-02-14T20:39:56.054Z,13.07
2023-02-14T20:42:23.865Z,16.30
2023-02-14T20:44:51.622Z,17.42
2023-02-14T20:47:19.276Z,15.57
2023-02-14T20:49:46.332Z,14.48
2023-02-14T20:52:13.705Z,16.35
2023-02-14T20:54:41.125Z,11.88
2023-02-14T20:57:08.442Z,18.15
2023-02-14T20:59:38.039Z,18.65
2023-02-14T21:02:05.605Z,21.80
2023-02-14T21:04:32.680Z,19.70
2023-02-14T21:07:00.690Z,19.60
2023-02-14T21:09:28.402Z,19.77
2023-02-14T21:11:55.683Z,16.15
2023-02-14T21:14:22.993Z,20.73
2023-02-14T21:16:50.159Z,18.63
2023-02-14T21:19:17.812Z,21.27
2023-02-14T21:21:44.928Z,17.45
2023-02-14T21:24:17.761Z,20.92
2023-02-14T21:26:45.881Z,22.08
2023-02-14T21:29:13.022Z,18.98
2023-02-14T21:31:40.329Z,21.70
2023-02-14T21:34:07.438Z,18.95
2023-02-14T21:36:36.193Z,16.88
2023-02-14T21:39:04.998Z,18.65
2023-02-14T21:41:32.688Z,17.25
2023-02-14T21:44:01.800Z,20.23
2023-02-14T21:46:32.826Z,18.30
2023-02-14T21:49:20.302Z,16.58
2023-02-14T21:51:48.612Z,14.82
2023-02-14T21:54:16.211Z,17.30
2023-02-14T21:56:44.034Z,20.52
2023-02-14T21:59:11.524Z,16.80
2023-02-14T22:01:41.576Z,19.00
2023-02-14T22:04:11.363Z,19.27
2023-02-14T22:06:40.936Z,20.33
2023-02-14T22:09:08.275Z,19.65
2023-02-14T22:11:35.862Z,18.08
2023-02-14T22:14:03.142Z,19.98
2023-02-14T22:16:30.635Z,19.92
2023-02-14T22:18:57.724Z,20.52
2023-02-14T22:21:26.833Z,20.45
2023-02-14T22:23:55.484Z,21.20
2023-02-14T22:26:27.129Z,20.38
2023-02-14T22:28:57.225Z,19.92
2023-02-14T22:31:26.103Z,24.17
2023-02-14T22:33:53.709Z,20.92
2023-02-14T22:36:21.167Z,24.38
2023-02-14T22:38:48.403Z,21.38
2023-02-14T22:41:20.683Z,23.40
2023-02-14T22:43:48.135Z,20.35
2023-02-14T22:46:17.380Z,19.42
2023-02-14T22:48:44.954Z,19.85
2023-02-14T22:51:21.479Z,24.05
2023-02-14T22:53:49.855Z,23.52
2023-02-14T22:56:22.438Z,18.52
2023-02-14T22:58:54.482Z,19.90
2023-02-14T23:01:23.159Z,16.67
2023-02-14T23:03:54.441Z,18.52
2023-02-14T23:06:21.777Z,18.20
2023-02-14T23:08:48.961Z,19.30
2023-02-14T23:11:21.994Z,20.55
2023-02-14T23:14:07.548Z,19.38
2023-02-14T23:16:53.745Z,17.50
2023-02-14T23:19:41.709Z,19.25
2023-02-14T23:22:15.640Z,19.15
2023-02-14T23:24:43.280Z,18.08
2023-02-14T23:27:10.520Z,19.30
2023-02-14T23:29:38.085Z,16.67
2023-02-14T23:32:06.651Z,16.50
2023-02-14T23:34:36.112Z,21.35
2023-02-14T23:37:03.846Z,15.95
2023-02-14T23:39:35.905Z,19.27
2023-02-14T23:42:05.616Z,18.65
2023-02-14T23:44:33.478Z,15.48
2023-02-14T23:47:04.661Z,17.67
2023-02-14T23:49:34.114Z,15.45
2023-02-14T23:52:04.778Z,15.70
2023-02-14T23:54:32.019Z,16.65
2023-02-14T23:56:59.200Z,16.23
2023-02-14T23:59:26.500Z,16.08
